sensor_id;sensor_type;location;lat;lon;timestamp;P1;durP1;ratioP1;P2;durP2;ratioP2
68192;SDS011;55012;47.562;18.414;2024-02-14T00:01:47;15.70;;;7.85;;
68192;SDS011;55012;47.562;18.414;2024-02-14T00:04:13;18.23;;;8.85;;
68192;SDS011;55012;47.562;18.414;2024-02-14T00:06:39;19.80;;;9.68;;
68192;SDS011;55012;47.562;18.414;2024-02-14T00:09:05;17.42;;;7.60;;
68192;SDS011;55012;47.562;18.414;2024-02-14T00:11:31;16.98;;;8.80;;
68192;SDS011;55012;47.562;18.414;2024-02-14T00:13:57;20.33;;;10.07;;
68192;SDS011;55012;47.562;18.414;2024-02-14T00:16:24;25.35;;;12.10;;
68192;SDS011;55012;47.562;18.414;2024-02-14T00:18:49;15.88;;;8.02;;
68192;SDS011;55012;47.562;18.414;2024-02-14T00:21:16;31.00;;;13.68;;
68192;SDS011;55012;47.562;18.414;2024-02-14T00:23:41;21.73;;;10.50;;
68192;SDS011;55012;47.562;18.414;2024-02-14T00:26:07;17.45;;;7.68;;
68192;SDS011;55012;47.562;18.414;2024-02-14T00:28:32;18.15;;;9.00;;
68192;SDS011;55012;47.562;18.414;2024-02-14T00:30:58;18.10;;;8.90;;
68192;SDS011;55012;47.562;18.414;2024-02-14T00:33:23;18.60;;;9.05;;
68192;SDS011;55012;47.562;18.414;2024-02-14T00:35:48;22.65;;;10.10;;
68192;SDS011;55012;47.562;18.414;2024-02-14T00:38:14;17.92;;;9.20;;
68192;SDS011;55012;47.562;18.414;2024-02-14T00:40:39;19.65;;;9.68;;
68192;SDS011;55012;47.562;18.414;2024-02-14T00:43:04;20.67;;;9.35;;
68192;SDS011;55012;47.562;18.414;2024-02-14T00:45:30;20.65;;;9.45;;
68192;SDS011;55012;47.562;18.414;2024-02-14T00:47:55;21.75;;;9.85;;
68192;SDS011;55012;47.562;18.414;2024-02-14T00:50:20;17.50;;;8.55;;
68192;SDS011;55012;47.562;18.414;2024-02-14T00:52:46;17.77;;;9.15;;
68192;SDS011;55012;47.562;18.414;2024-02-14T00:55:11;17.40;;;8.43;;
68192;SDS011;55012;47.562;18.414;2024-02-14T00:57:37;18.60;;;9.32;;
68192;SDS011;55012;47.562;18.414;2024-02-14T01:00:02;18.10;;;9.52;;
68192;SDS011;55012;47.562;18.414;2024-02-14T01:02:28;21.50;;;9.73;;
68192;SDS011;55012;47.562;18.414;2024-02-14T01:04:55;18.13;;;8.60;;
68192;SDS011;55012;47.562;18.414;2024-02-14T01:07:20;20.15;;;8.65;;
68192;SDS011;55012;47.562;18.414;2024-02-14T01:09:46;18.88;;;9.13;;
68192;SDS011;55012;47.562;18.414;2024-02-14T01:12:11;18.77;;;9.02;;
68192;SDS011;55012;47.562;18.414;2024-02-14T01:14:37;15.95;;;7.78;;
68192;SDS011;55012;47.562;18.414;2024-02-14T01:17:02;18.02;;;8.57;;
68192;SDS011;55012;47.562;18.414;2024-02-14T01:19:28;18.67;;;8.50;;
68192;SDS011;55012;47.562;18.414;2024-02-14T01:21:54;17.13;;;8.40;;
68192;SDS011;55012;47.562;18.414;2024-02-14T01:24:22;16.25;;;8.00;;
68192;SDS011;55012;47.562;18.414;2024-02-14T01:26:47;16.02;;;7.82;;
68192;SDS011;55012;47.562;18.414;2024-02-14T01:29:14;17.33;;;8.50;;
68192;SDS011;55012;47.562;18.414;2024-02-14T01:31:41;18.00;;;8.30;;
68192;SDS011;55012;47.562;18.414;2024-02-14T01:34:07;16.52;;;8.40;;
68192;SDS011;55012;47.562;18.414;2024-02-14T01:36:32;20.75;;;8.82;;
68192;SDS011;55012;47.562;18.414;2024-02-14T01:38:57;13.88;;;7.30;;
68192;SDS011;55012;47.562;18.414;2024-02-14T01:41:23;19.17;;;8.93;;
68192;SDS011;55012;47.562;18.414;2024-02-14T01:43:49;13.50;;;7.35;;
68192;SDS011;55012;47.562;18.414;2024-02-14T01:46:14;15.68;;;7.90;;
68192;SDS011;55012;47.562;18.414;2024-02-14T01:48:41;15.75;;;7.85;;
68192;SDS011;55012;47.562;18.414;2024-02-14T01:51:07;16.50;;;8.50;;
68192;SDS011;55012;47.562;18.414;2024-02-14T01:53:36;15.65;;;8.02;;
68192;SDS011;55012;47.562;18.414;2024-02-14T01:56:03;17.23;;;8.65;;
68192;SDS011;55012;47.562;18.414;2024-02-14T01:58:29;18.95;;;8.10;;
68192;SDS011;55012;47.562;18.414;2024-02-14T02:00:55;21.65;;;9.23;;
68192;SDS011;55012;47.562;18.414;2024-02-14T02:03:24;19.13;;;9.15;;
68192;SDS011;55012;47.562;18.414;2024-02-14T02:05:54;15.07;;;8.00;;
68192;SDS011;55012;47.562;18.414;2024-02-14T02:08:20;18.48;;;8.68;;
68192;SDS011;55012;47.562;18.414;2024-02-14T02:10:46;19.15;;;8.32;;
68192;SDS011;55012;47.562;18.414;2024-02-14T02:13:12;16.00;;;8.55;;
68192;SDS011;55012;47.562;18.414;2024-02-14T02:15:37;15.50;;;8.18;;
68192;SDS011;55012;47.562;18.414;2024-02-14T02:18:03;15.88;;;8.18;;
68192;SDS011;55012;47.562;18.414;2024-02-14T02:20:31;16.63;;;7.50;;
68192;SDS011;55012;47.562;18.414;2024-02-14T02:22:57;17.08;;;8.25;;
68192;SDS011;55012;47.562;18.414;2024-02-14T02:25:22;16.60;;;7.85;;
68192;SDS011;55012;47.562;18.414;2024-02-14T02:27:50;16.15;;;8.25;;
68192;SDS011;55012;47.562;18.414;2024-02-14T02:30:16;17.05;;;8.40;;
68192;SDS011;55012;47.562;18.414;2024-02-14T02:32:42;16.27;;;7.95;;
68192;SDS011;55012;47.562;18.414;2024-02-14T02:35:07;15.00;;;7.25;;
68192;SDS011;55012;47.562;18.414;2024-02-14T02:37:34;13.30;;;7.03;;
68192;SDS011;55012;47.562;18.414;2024-02-14T02:40:00;14.65;;;7.03;;
68192;SDS011;55012;47.562;18.414;2024-02-14T02:42:25;15.73;;;7.75;;
68192;SDS011;55012;47.562;18.414;2024-02-14T02:44:51;16.58;;;7.75;;
68192;SDS011;55012;47.562;18.414;2024-02-14T02:47:16;14.25;;;6.65;;
68192;SDS011;55012;47.562;18.414;2024-02-14T02:49:45;15.77;;;7.40;;
68192;SDS011;55012;47.562;18.414;2024-02-14T02:52:11;16.35;;;7.82;;
68192;SDS011;55012;47.562;18.414;2024-02-14T02:54:37;17.63;;;8.32;;
68192;SDS011;55012;47.562;18.414;2024-02-14T02:57:06;15.55;;;7.82;;
68192;SDS011;55012;47.562;18.414;2024-02-14T02:59:32;20.02;;;9.23;;
68192;SDS011;55012;47.562;18.414;2024-02-14T03:01:57;20.42;;;8.95;;
68192;SDS011;55012;47.562;18.414;2024-02-14T03:04:23;21.10;;;9.43;;
68192;SDS011;55012;47.562;18.414;2024-02-14T03:06:49;20.63;;;9.38;;
68192;SDS011;55012;47.562;18.414;2024-02-14T03:09:14;18.52;;;8.68;;
68192;SDS011;55012;47.562;18.414;2024-02-14T03:11:40;17.63;;;8.38;;
68192;SDS011;55012;47.562;18.414;2024-02-14T03:14:05;16.52;;;7.40;;
68192;SDS011;55012;47.562;18.414;2024-02-14T03:16:32;17.40;;;8.32;;
68192;SDS011;55012;47.562;18.414;2024-02-14T03:18:58;18.60;;;8.60;;
68192;SDS011;55012;47.562;18.414;2024-02-14T03:21:23;17.75;;;7.95;;
68192;SDS011;55012;47.562;18.414;2024-02-14T03:23:49;15.57;;;8.32;;
68192;SDS011;55012;47.562;18.414;2024-02-14T03:26:14;16.27;;;7.50;;
68192;SDS011;55012;47.562;18.414;2024-02-14T03:28:39;17.40;;;7.78;;
68192;SDS011;55012;47.562;18.414;2024-02-14T03:31:05;14.95;;;7.38;;
68192;SDS011;55012;47.562;18.414;2024-02-14T03:33:30;16.08;;;8.48;;
68192;SDS011;55012;47.562;18.414;2024-02-14T03:35:55;16.45;;;7.93;;
68192;SDS011;55012;47.562;18.414;2024-02-14T03:38:27;15.05;;;7.88;;
68192;SDS011;55012;47.562;18.414;2024-02-14T03:40:52;16.42;;;7.90;;
68192;SDS011;55012;47.562;18.414;2024-02-14T03:43:18;14.88;;;7.75;;
68192;SDS011;55012;47.562;18.414;2024-02-14T03:45:44;15.98;;;7.75;;
68192;SDS011;55012;47.562;18.414;2024-02-14T03:48:11;16.08;;;7.43;;
68192;SDS011;55012;47.562;18.414;2024-02-14T03:50:40;15.18;;;7.53;;
68192;SDS011;55012;47.562;18.414;2024-02-14T03:53:05;14.63;;;7.25;;
68192;SDS011;55012;47.562;18.414;2024-02-14T03:55:31;17.58;;;7.85;;
68192;SDS011;55012;47.562;18.414;2024-02-14T03:57:57;14.35;;;7.53;;
68192;SDS011;55012;47.562;18.414;2024-02-14T04:00:22;14.65;;;7.25;;
68192;SDS011;55012;47.562;18.414;2024-02-14T04:02:48;16.23;;;8.10;;
68192;SDS011;55012;47.562;18.414;2024-02-14T04:05:15;15.40;;;7.63;;
68192;SDS011;55012;47.562;18.414;2024-02-14T04:07:41;16.42;;;8.00;;
68192;SDS011;55012;47.562;18.414;2024-02-14T04:10:09;18.35;;;8.60;;
68192;SDS011;55012;47.562;18.414;2024-02-14T04:12:34;15.77;;;7.85;;
68192;SDS011;55012;47.562;18.414;2024-02-14T04:15:00;15.82;;;8.02;;
68192;SDS011;55012;47.562;18.414;2024-02-14T04:17:25;20.98;;;8.93;;
68192;SDS011;55012;47.562;18.414;2024-02-14T04:19:50;17.58;;;8.52;;
68192;SDS011;55012;47.562;18.414;2024-02-14T04:22:16;19.58;;;9.38;;
68192;SDS011;55012;47.562;18.414;2024-02-14T04:24:41;18.95;;;8.63;;
68192;SDS011;55012;47.562;18.414;2024-02-14T04:27:06;18.08;;;8.60;;
68192;SDS011;55012;47.562;18.414;2024-02-14T04:29:32;17.52;;;8.55;;
68192;SDS011;55012;47.562;18.414;2024-02-14T04:31:58;17.35;;;9.05;;
68192;SDS011;55012;47.562;18.414;2024-02-14T04:34:24;13.40;;;7.20;;
68192;SDS011;55012;47.562;18.414;2024-02-14T04:36:50;17.52;;;7.97;;
68192;SDS011;55012;47.562;18.414;2024-02-14T04:39:16;17.27;;;7.97;;
68192;SDS011;55012;47.562;18.414;2024-02-14T04:41:42;18.83;;;9.07;;
68192;SDS011;55012;47.562;18.414;2024-02-14T04:44:07;18.80;;;8.57;;
68192;SDS011;55012;47.562;18.414;2024-02-14T04:46:33;18.92;;;8.15;;
68192;SDS011;55012;47.562;18.414;2024-02-14T04:49:00;19.05;;;9.15;;
68192;SDS011;55012;47.562;18.414;2024-02-14T04:51:28;18.08;;;8.93;;
68192;SDS011;55012;47.562;18.414;2024-02-14T04:53:54;22.42;;;9.07;;
68192;SDS011;55012;47.562;18.414;2024-02-14T04:56:23;18.65;;;9.18;;
68192;SDS011;55012;47.562;18.414;2024-02-14T04:58:49;19.50;;;9.15;;
68192;SDS011;55012;47.562;18.414;2024-02-14T05:01:14;17.15;;;8.77;;
68192;SDS011;55012;47.562;18.414;2024-02-14T05:03:40;17.10;;;8.32;;
68192;SDS011;55012;47.562;18.414;2024-02-14T05:06:05;23.30;;;9.57;;
68192;SDS011;55012;47.562;18.414;2024-02-14T05:08:31;21.50;;;10.10;;
68192;SDS011;55012;47.562;18.414;2024-02-14T05:10:57;21.02;;;9.75;;
68192;SDS011;55012;47.562;18.414;2024-02-14T05:13:22;23.08;;;10.60;;
68192;SDS011;55012;47.562;18.414;2024-02-14T05:15:48;26.15;;;12.00;;
68192;SDS011;55012;47.562;18.414;2024-02-14T05:18:16;23.88;;;11.63;;
68192;SDS011;55012;47.562;18.414;2024-02-14T05:20:41;24.67;;;11.27;;
68192;SDS011;55012;47.562;18.414;2024-02-14T05:23:07;24.75;;;11.77;;
68192;SDS011;55012;47.562;18.414;2024-02-14T05:25:33;26.63;;;11.50;;
68192;SDS011;55012;47.562;18.414;2024-02-14T05:27:58;25.33;;;11.27;;
68192;SDS011;55012;47.562;18.414;2024-02-14T05:30:24;25.50;;;11.60;;
68192;SDS011;55012;47.562;18.414;2024-02-14T05:32:49;23.23;;;11.07;;
68192;SDS011;55012;47.562;18.414;2024-02-14T05:35:17;26.85;;;11.98;;
68192;SDS011;55012;47.562;18.414;2024-02-14T05:37:42;29.48;;;13.57;;
68192;SDS011;55012;47.562;18.414;2024-02-14T05:40:08;33.88;;;14.02;;
68192;SDS011;55012;47.562;18.414;2024-02-14T05:42:33;56.08;;;24.27;;
68192;SDS011;55012;47.562;18.414;2024-02-14T05:44:59;29.63;;;13.02;;
68192;SDS011;55012;47.562;18.414;2024-02-14T05:47:25;30.95;;;13.80;;
68192;SDS011;55012;47.562;18.414;2024-02-14T05:49:50;26.75;;;12.32;;
68192;SDS011;55012;47.562;18.414;2024-02-14T05:52:16;33.92;;;15.77;;
68192;SDS011;55012;47.562;18.414;2024-02-14T05:54:43;25.88;;;13.07;;
68192;SDS011;55012;47.562;18.414;2024-02-14T05:57:08;29.95;;;12.45;;
68192;SDS011;55012;47.562;18.414;2024-02-14T05:59:34;29.50;;;13.35;;
68192;SDS011;55012;47.562;18.414;2024-02-14T06:01:59;26.30;;;12.30;;
68192;SDS011;55012;47.562;18.414;2024-02-14T06:04:24;31.08;;;13.73;;
68192;SDS011;55012;47.562;18.414;2024-02-14T06:06:50;29.17;;;13.15;;
68192;SDS011;55012;47.562;18.414;2024-02-14T06:09:15;31.25;;;14.02;;
68192;SDS011;55012;47.562;18.414;2024-02-14T06:11:40;29.33;;;13.13;;
68192;SDS011;55012;47.562;18.414;2024-02-14T06:14:07;28.80;;;13.95;;
68192;SDS011;55012;47.562;18.414;2024-02-14T06:16:33;28.27;;;13.32;;
68192;SDS011;55012;47.562;18.414;2024-02-14T06:18:59;29.52;;;13.95;;
68192;SDS011;55012;47.562;18.414;2024-02-14T06:21:25;30.52;;;14.55;;
68192;SDS011;55012;47.562;18.414;2024-02-14T06:23:51;30.15;;;13.50;;
68192;SDS011;55012;47.562;18.414;2024-02-14T06:26:17;25.98;;;11.32;;
68192;SDS011;55012;47.562;18.414;2024-02-14T06:28:43;30.63;;;13.18;;
68192;SDS011;55012;47.562;18.414;2024-02-14T06:31:09;28.65;;;12.52;;
68192;SDS011;55012;47.562;18.414;2024-02-14T06:33:35;30.85;;;14.07;;
68192;SDS011;55012;47.562;18.414;2024-02-14T06:36:00;35.65;;;16.08;;
68192;SDS011;55012;47.562;18.414;2024-02-14T06:38:26;33.85;;;14.88;;
68192;SDS011;55012;47.562;18.414;2024-02-14T06:40:51;34.25;;;15.30;;
68192;SDS011;55012;47.562;18.414;2024-02-14T06:43:16;27.10;;;12.32;;
68192;SDS011;55012;47.562;18.414;2024-02-14T06:45:42;25.95;;;12.15;;
68192;SDS011;55012;47.562;18.414;2024-02-14T06:48:07;30.15;;;13.85;;
68192;SDS011;55012;47.562;18.414;2024-02-14T06:50:33;31.27;;;13.40;;
68192;SDS011;55012;47.562;18.414;2024-02-14T06:52:59;32.17;;;14.93;;
68192;SDS011;55012;47.562;18.414;2024-02-14T06:55:25;27.98;;;12.48;;
68192;SDS011;55012;47.562;18.414;2024-02-14T06:57:51;23.08;;;10.50;;
68192;SDS011;55012;47.562;18.414;2024-02-14T07:00:16;23.30;;;10.88;;
68192;SDS011;55012;47.562;18.414;2024-02-14T07:02:42;27.60;;;13.38;;
68192;SDS011;55012;47.562;18.414;2024-02-14T07:05:08;41.05;;;17.65;;
68192;SDS011;55012;47.562;18.414;2024-02-14T07:07:37;36.63;;;18.00;;
68192;SDS011;55012;47.562;18.414;2024-02-14T07:10:03;53.17;;;25.92;;
68192;SDS011;55012;47.562;18.414;2024-02-14T07:12:31;59.25;;;29.30;;
68192;SDS011;55012;47.562;18.414;2024-02-14T07:14:56;53.53;;;25.33;;
68192;SDS011;55012;47.562;18.414;2024-02-14T07:17:22;47.95;;;24.20;;
68192;SDS011;55012;47.562;18.414;2024-02-14T07:19:47;48.60;;;24.38;;
68192;SDS011;55012;47.562;18.414;2024-02-14T07:22:14;45.08;;;20.50;;
68192;SDS011;55012;47.562;18.414;2024-02-14T07:24:41;43.72;;;21.80;;
68192;SDS011;55012;47.562;18.414;2024-02-14T07:27:07;40.15;;;20.08;;
68192;SDS011;55012;47.562;18.414;2024-02-14T07:29:32;40.88;;;19.35;;
68192;SDS011;55012;47.562;18.414;2024-02-14T07:32:01;42.20;;;19.02;;
68192;SDS011;55012;47.562;18.414;2024-02-14T07:34:27;36.92;;;17.90;;
68192;SDS011;55012;47.562;18.414;2024-02-14T07:36:52;40.88;;;18.73;;
68192;SDS011;55012;47.562;18.414;2024-02-14T07:39:17;39.58;;;18.92;;
68192;SDS011;55012;47.562;18.414;2024-02-14T07:41:43;43.20;;;19.85;;
68192;SDS011;55012;47.562;18.414;2024-02-14T07:44:09;42.03;;;19.52;;
68192;SDS011;55012;47.562;18.414;2024-02-14T07:46:34;43.13;;;18.85;;
68192;SDS011;55012;47.562;18.414;2024-02-14T07:48:59;39.22;;;17.50;;
68192;SDS011;55012;47.562;18.414;2024-02-14T07:51:25;35.47;;;16.58;;
68192;SDS011;55012;47.562;18.414;2024-02-14T07:53:51;36.03;;;16.63;;
68192;SDS011;55012;47.562;18.414;2024-02-14T07:56:16;34.55;;;16.23;;
68192;SDS011;55012;47.562;18.414;2024-02-14T07:58:43;34.00;;;15.90;;
68192;SDS011;55012;47.562;18.414;2024-02-14T08:01:09;32.38;;;15.48;;
68192;SDS011;55012;47.562;18.414;2024-02-14T08:03:34;30.63;;;15.00;;
68192;SDS011;55012;47.562;18.414;2024-02-14T08:05:59;32.33;;;14.88;;
68192;SDS011;55012;47.562;18.414;2024-02-14T08:08:25;26.98;;;13.45;;
68192;SDS011;55012;47.562;18.414;2024-02-14T08:10:53;24.08;;;11.63;;
68192;SDS011;55012;47.562;18.414;2024-02-14T08:13:19;26.85;;;12.85;;
68192;SDS011;55012;47.562;18.414;2024-02-14T08:15:44;24.73;;;12.57;;
68192;SDS011;55012;47.562;18.414;2024-02-14T08:18:10;26.17;;;11.75;;
68192;SDS011;55012;47.562;18.414;2024-02-14T08:20:37;20.10;;;9.93;;
68192;SDS011;55012;47.562;18.414;2024-02-14T08:23:03;24.17;;;12.00;;
68192;SDS011;55012;47.562;18.414;2024-02-14T08:25:28;21.60;;;10.70;;
68192;SDS011;55012;47.562;18.414;2024-02-14T08:27:55;21.60;;;11.07;;
68192;SDS011;55012;47.562;18.414;2024-02-14T08:30:21;23.23;;;11.77;;
68192;SDS011;55012;47.562;18.414;2024-02-14T08:32:46;22.33;;;10.95;;
68192;SDS011;55012;47.562;18.414;2024-02-14T08:35:12;22.38;;;11.60;;
68192;SDS011;55012;47.562;18.414;2024-02-14T08:37:38;23.88;;;11.45;;
68192;SDS011;55012;47.562;18.414;2024-02-14T08:40:05;21.58;;;10.50;;
68192;SDS011;55012;47.562;18.414;2024-02-14T08:42:32;20.55;;;10.43;;
68192;SDS011;55012;47.562;18.414;2024-02-14T08:44:58;21.75;;;11.05;;
68192;SDS011;55012;47.562;18.414;2024-02-14T08:47:24;20.00;;;10.70;;
68192;SDS011;55012;47.562;18.414;2024-02-14T08:49:49;23.42;;;10.98;;
68192;SDS011;55012;47.562;18.414;2024-02-14T08:52:14;22.08;;;10.40;;
68192;SDS011;55012;47.562;18.414;2024-02-14T08:54:39;22.92;;;10.95;;
68192;SDS011;55012;47.562;18.414;2024-02-14T08:57:05;22.88;;;11.18;;
68192;SDS011;55012;47.562;18.414;2024-02-14T08:59:30;22.92;;;11.63;;
68192;SDS011;55012;47.562;18.414;2024-02-14T09:01:56;22.65;;;11.48;;
68192;SDS011;55012;47.562;18.414;2024-02-14T09:04:21;23.13;;;11.38;;
68192;SDS011;55012;47.562;18.414;2024-02-14T09:06:47;23.73;;;11.80;;
68192;SDS011;55012;47.562;18.414;2024-02-14T09:09:12;19.92;;;11.40;;
68192;SDS011;55012;47.562;18.414;2024-02-14T09:11:39;22.75;;;11.75;;
68192;SDS011;55012;47.562;18.414;2024-02-14T09:14:05;23.08;;;10.88;;
68192;SDS011;55012;47.562;18.414;2024-02-14T09:16:32;23.63;;;11.88;;
68192;SDS011;55012;47.562;18.414;2024-02-14T09:18:58;25.73;;;12.15;;
68192;SDS011;55012;47.562;18.414;2024-02-14T09:21:24;24.52;;;12.52;;
68192;SDS011;55012;47.562;18.414;2024-02-14T09:23:49;25.50;;;12.85;;
68192;SDS011;55012;47.562;18.414;2024-02-14T09:26:15;24.33;;;12.15;;
68192;SDS011;55012;47.562;18.414;2024-02-14T09:28:43;24.23;;;11.23;;
68192;SDS011;55012;47.562;18.414;2024-02-14T09:31:09;23.45;;;12.20;;
68192;SDS011;55012;47.562;18.414;2024-02-14T09:33:36;21.98;;;11.95;;
68192;SDS011;55012;47.562;18.414;2024-02-14T09:36:02;25.05;;;12.13;;
68192;SDS011;55012;47.562;18.414;2024-02-14T09:38:29;24.85;;;12.00;;
68192;SDS011;55012;47.562;18.414;2024-02-14T09:40:54;20.05;;;10.40;;
68192;SDS011;55012;47.562;18.414;2024-02-14T09:43:38;22.73;;;10.55;;
68192;SDS011;55012;47.562;18.414;2024-02-14T09:46:06;18.35;;;9.88;;
68192;SDS011;55012;47.562;18.414;2024-02-14T09:48:33;23.38;;;11.02;;
68192;SDS011;55012;47.562;18.414;2024-02-14T09:50:59;20.10;;;11.02;;
68192;SDS011;55012;47.562;18.414;2024-02-14T09:53:25;20.58;;;10.48;;
68192;SDS011;55012;47.562;18.414;2024-02-14T09:55:53;18.85;;;9.18;;
68192;SDS011;55012;47.562;18.414;2024-02-14T09:58:19;19.73;;;9.45;;
68192;SDS011;55012;47.562;18.414;2024-02-14T10:00:45;18.23;;;9.65;;
68192;SDS011;55012;47.562;18.414;2024-02-14T10:03:10;20.23;;;10.00;;
68192;SDS011;55012;47.562;18.414;2024-02-14T10:05:36;17.73;;;9.88;;
68192;SDS011;55012;47.562;18.414;2024-02-14T10:08:01;18.95;;;10.40;;
68192;SDS011;55012;47.562;18.414;2024-02-14T10:10:27;19.30;;;10.18;;
68192;SDS011;55012;47.562;18.414;2024-02-14T10:12:55;18.17;;;9.68;;
68192;SDS011;55012;47.562;18.414;2024-02-14T10:15:21;17.08;;;9.15;;
68192;SDS011;55012;47.562;18.414;2024-02-14T10:17:47;19.95;;;9.52;;
68192;SDS011;55012;47.562;18.414;2024-02-14T10:20:16;18.67;;;9.00;;
68192;SDS011;55012;47.562;18.414;2024-02-14T10:22:42;17.50;;;9.00;;
68192;SDS011;55012;47.562;18.414;2024-02-14T10:25:09;19.65;;;9.48;;
68192;SDS011;55012;47.562;18.414;2024-02-14T10:27:38;16.83;;;9.10;;
68192;SDS011;55012;47.562;18.414;2024-02-14T10:30:08;19.15;;;10.13;;
68192;SDS011;55012;47.562;18.414;2024-02-14T10:32:34;17.33;;;8.73;;
68192;SDS011;55012;47.562;18.414;2024-02-14T10:35:06;17.63;;;9.02;;
68192;SDS011;55012;47.562;18.414;2024-02-14T10:37:33;19.15;;;9.30;;
68192;SDS011;55012;47.562;18.414;2024-02-14T10:40:01;18.48;;;9.18;;
68192;SDS011;55012;47.562;18.414;2024-02-14T10:42:27;16.98;;;8.85;;
68192;SDS011;55012;47.562;18.414;2024-02-14T10:44:54;18.15;;;9.50;;
68192;SDS011;55012;47.562;18.414;2024-02-14T10:47:20;15.43;;;7.70;;
68192;SDS011;55012;47.562;18.414;2024-02-14T10:49:49;14.05;;;7.65;;
68192;SDS011;55012;47.562;18.414;2024-02-14T10:52:16;14.55;;;7.78;;
68192;SDS011;55012;47.562;18.414;2024-02-14T10:54:43;13.63;;;7.50;;
68192;SDS011;55012;47.562;18.414;2024-02-14T10:57:16;13.98;;;7.78;;
68192;SDS011;55012;47.562;18.414;2024-02-14T10:59:45;13.50;;;7.70;;
68192;SDS011;55012;47.562;18.414;2024-02-14T11:02:13;16.20;;;7.97;;
68192;SDS011;55012;47.562;18.414;2024-02-14T11:04:39;14.25;;;7.30;;
68192;SDS011;55012;47.562;18.414;2024-02-14T11:07:08;16.60;;;7.60;;
68192;SDS011;55012;47.562;18.414;2024-02-14T11:09:37;12.82;;;6.95;;
68192;SDS011;55012;47.562;18.414;2024-02-14T11:12:06;12.50;;;6.40;;
68192;SDS011;55012;47.562;18.414;2024-02-14T11:14:33;15.93;;;8.13;;
68192;SDS011;55012;47.562;18.414;2024-02-14T11:17:00;12.77;;;6.88;;
68192;SDS011;55012;47.562;18.414;2024-02-14T11:19:33;13.95;;;6.97;;
68192;SDS011;55012;47.562;18.414;2024-02-14T11:22:09;10.93;;;6.20;;
68192;SDS011;55012;47.562;18.414;2024-02-14T11:24:36;11.73;;;6.25;;
68192;SDS011;55012;47.562;18.414;2024-02-14T11:27:01;13.45;;;6.70;;
68192;SDS011;55012;47.562;18.414;2024-02-14T11:29:30;11.18;;;6.32;;
68192;SDS011;55012;47.562;18.414;2024-02-14T11:31:58;11.68;;;6.28;;
68192;SDS011;55012;47.562;18.414;2024-02-14T11:34:25;10.60;;;5.63;;
68192;SDS011;55012;47.562;18.414;2024-02-14T11:36:51;10.00;;;6.05;;
68192;SDS011;55012;47.562;18.414;2024-02-14T11:39:16;14.15;;;7.22;;
68192;SDS011;55012;47.562;18.414;2024-02-14T11:41:42;12.98;;;7.18;;
68192;SDS011;55012;47.562;18.414;2024-02-14T11:44:07;10.50;;;6.00;;
68192;SDS011;55012;47.562;18.414;2024-02-14T11:46:34;13.85;;;7.18;;
68192;SDS011;55012;47.562;18.414;2024-02-14T11:49:01;13.63;;;7.43;;
68192;SDS011;55012;47.562;18.414;2024-02-14T11:51:28;14.50;;;7.60;;
68192;SDS011;55012;47.562;18.414;2024-02-14T11:53:54;11.50;;;6.05;;
68192;SDS011;55012;47.562;18.414;2024-02-14T11:56:21;12.73;;;7.20;;
68192;SDS011;55012;47.562;18.414;2024-02-14T11:58:47;12.93;;;7.03;;
68192;SDS011;55012;47.562;18.414;2024-02-14T12:01:16;12.35;;;7.50;;
68192;SDS011;55012;47.562;18.414;2024-02-14T12:03:44;15.70;;;7.28;;
68192;SDS011;55012;47.562;18.414;2024-02-14T12:06:10;13.98;;;8.30;;
68192;SDS011;55012;47.562;18.414;2024-02-14T12:08:36;17.42;;;8.25;;
68192;SDS011;55012;47.562;18.414;2024-02-14T12:11:03;14.60;;;8.50;;
68192;SDS011;55012;47.562;18.414;2024-02-14T12:13:30;17.33;;;8.23;;
68192;SDS011;55012;47.562;18.414;2024-02-14T12:15:57;16.15;;;8.05;;
68192;SDS011;55012;47.562;18.414;2024-02-14T12:18:22;13.25;;;7.93;;
68192;SDS011;55012;47.562;18.414;2024-02-14T12:20:48;12.35;;;7.03;;
68192;SDS011;55012;47.562;18.414;2024-02-14T12:23:15;14.77;;;8.07;;
68192;SDS011;55012;47.562;18.414;2024-02-14T12:25:42;20.30;;;7.70;;
68192;SDS011;55012;47.562;18.414;2024-02-14T12:28:08;11.25;;;6.72;;
68192;SDS011;55012;47.562;18.414;2024-02-14T12:30:42;13.15;;;6.47;;
68192;SDS011;55012;47.562;18.414;2024-02-14T12:33:13;15.18;;;7.53;;
68192;SDS011;55012;47.562;18.414;2024-02-14T12:35:45;17.02;;;7.38;;
68192;SDS011;55012;47.562;18.414;2024-02-14T12:38:12;13.50;;;7.07;;
68192;SDS011;55012;47.562;18.414;2024-02-14T12:40:39;12.70;;;6.95;;
68192;SDS011;55012;47.562;18.414;2024-02-14T12:43:09;12.80;;;7.32;;
68192;SDS011;55012;47.562;18.414;2024-02-14T12:45:36;12.45;;;7.28;;
68192;SDS011;55012;47.562;18.414;2024-02-14T12:48:02;13.00;;;7.30;;
68192;SDS011;55012;47.562;18.414;2024-02-14T12:50:27;13.13;;;7.18;;
68192;SDS011;55012;47.562;18.414;2024-02-14T12:52:53;13.80;;;7.38;;
68192;SDS011;55012;47.562;18.414;2024-02-14T12:55:18;13.63;;;7.05;;
68192;SDS011;55012;47.562;18.414;2024-02-14T12:57:44;11.48;;;6.85;;
68192;SDS011;55012;47.562;18.414;2024-02-14T13:00:10;10.25;;;6.20;;
68192;SDS011;55012;47.562;18.414;2024-02-14T13:02:36;12.93;;;6.78;;
68192;SDS011;55012;47.562;18.414;2024-02-14T13:05:03;12.50;;;7.40;;
68192;SDS011;55012;47.562;18.414;2024-02-14T13:07:29;14.07;;;7.03;;
68192;SDS011;55012;47.562;18.414;2024-02-14T13:09:59;13.73;;;7.88;;
68192;SDS011;55012;47.562;18.414;2024-02-14T13:12:25;13.93;;;6.88;;
68192;SDS011;55012;47.562;18.414;2024-02-14T13:14:51;12.98;;;6.30;;
68192;SDS011;55012;47.562;18.414;2024-02-14T13:17:16;11.35;;;7.03;;
68192;SDS011;55012;47.562;18.414;2024-02-14T13:19:41;12.57;;;6.63;;
68192;SDS011;55012;47.562;18.414;2024-02-14T13:22:10;10.60;;;6.43;;
68192;SDS011;55012;47.562;18.414;2024-02-14T13:24:36;11.13;;;6.15;;
68192;SDS011;55012;47.562;18.414;2024-02-14T13:27:03;13.73;;;7.10;;
68192;SDS011;55012;47.562;18.414;2024-02-14T13:29:28;11.55;;;6.95;;
68192;SDS011;55012;47.562;18.414;2024-02-14T13:31:54;14.00;;;6.70;;
68192;SDS011;55012;47.562;18.414;2024-02-14T13:34:19;10.23;;;6.13;;
68192;SDS011;55012;47.562;18.414;2024-02-14T13:36:47;12.40;;;6.75;;
68192;SDS011;55012;47.562;18.414;2024-02-14T13:39:13;11.52;;;5.90;;
68192;SDS011;55012;47.562;18.414;2024-02-14T13:41:39;12.15;;;6.90;;
68192;SDS011;55012;47.562;18.414;2024-02-14T13:44:08;12.43;;;6.50;;
68192;SDS011;55012;47.562;18.414;2024-02-14T13:46:33;11.35;;;5.90;;
68192;SDS011;55012;47.562;18.414;2024-02-14T13:48:59;12.52;;;6.72;;
68192;SDS011;55012;47.562;18.414;2024-02-14T13:51:25;11.85;;;6.30;;
68192;SDS011;55012;47.562;18.414;2024-02-14T13:53:51;10.35;;;6.22;;
68192;SDS011;55012;47.562;18.414;2024-02-14T13:56:17;12.50;;;6.43;;
68192;SDS011;55012;47.562;18.414;2024-02-14T13:58:43;11.65;;;6.47;;
68192;SDS011;55012;47.562;18.414;2024-02-14T14:01:09;14.73;;;6.93;;
68192;SDS011;55012;47.562;18.414;2024-02-14T14:03:35;11.30;;;6.25;;
68192;SDS011;55012;47.562;18.414;2024-02-14T14:06:02;10.98;;;6.50;;
68192;SDS011;55012;47.562;18.414;2024-02-14T14:08:30;11.57;;;6.78;;
68192;SDS011;55012;47.562;18.414;2024-02-14T14:10:55;11.93;;;6.30;;